Time;durP1;ratioP1;P1;durP2;ratioP2;P2;SDS_P1;SDS_P2;PMS_P1;PMS_P2;Temp;Humidity;BMP_temperature;BMP_pressure;BME280_temperature;BME280_humidity;BME280_pressure;Samples;Min_cycle;Max_cycle;Signal;HPM_P1;HPM_P2
2022/09/11 00:00:59;;;;;;;17.33;10.25;;;;;;;19.53;91.61;99077.41;5003352;28;20021;-95
2022/09/11 00:03:26;;;;;;;16.10;10.10;;;;;;;19.58;91.52;99085.38;5003290;28;20029;-94
2022/09/11 00:05:52;;;;;;;13.60;9.63;;;;;;;19.51;91.70;99071.50;5003590;28;20047;-94
2022/09/11 00:08:18;;;;;;;11.18;8.18;;;;;;;19.65;91.19;99076.66;5019057;28;20108;-94
2022/09/11 00:10:44;;;;;;;11.68;8.55;;;;;;;19.68;90.73;99062.31;5003586;28;20037;-94
2022/09/11 00:13:13;;;;;;;11.35;8.50;;;;;;;19.67;89.80;99056.06;5020148;28;20021;-94
2022/09/11 00:15:40;;;;;;;9.25;7.50;;;;;;;19.92;86.89;99089.75;5019393;28;20024;-94
2022/09/11 00:18:06;;;;;;;12.05;8.05;;;;;;;19.50;89.18;99054.28;5002644;28;20041;-95
2022/09/11 00:20:32;;;;;;;10.27;8.00;;;;;;;19.57;90.39;99094.72;5003584;28;20044;-94
2022/09/11 00:23:00;;;;;;;10.80;7.80;;;;;;;19.55;90.48;99086.06;5004200;28;20556;-95
2022/09/11 00:25:27;;;;;;;11.48;7.78;;;;;;;19.42;90.28;99081.69;5019899;28;20025;-94
2022/09/11 00:27:52;;;;;;;20.63;9.18;;;;;;;19.31;90.70;99071.16;5021578;28;20033;-95
2022/09/11 00:30:18;;;;;;;12.85;8.32;;;;;;;19.36;91.68;99102.91;5007375;28;20040;-93
2022/09/11 00:32:43;;;;;;;11.25;8.05;;;;;;;19.23;91.17;99091.13;5023741;28;20426;-95
2022/09/11 00:35:09;;;;;;;11.98;8.30;;;;;;;19.08;91.63;99072.63;5006114;28;20021;-94
2022/09/11 00:37:35;;;;;;;10.23;8.00;;;;;;;19.05;91.75;99084.22;5039465;28;20028;-94
2022/09/11 00:40:01;;;;;;;13.30;9.30;;;;;;;19.08;91.57;99098.00;5022459;28;20171;-93
2022/09/11 00:42:26;;;;;;;12.00;8.60;;;;;;;18.91;91.58;99085.28;5006467;28;20051;-94
2022/09/11 00:44:56;;;;;;;12.82;8.65;;;;;;;18.83;92.27;99071.69;5006647;28;20427;-95
2022/09/11 00:47:21;;;;;;;12.18;8.10;;;;;;;19.04;91.51;99109.91;5022780;28;20119;-95
2022/09/11 00:49:47;;;;;;;10.40;8.20;;;;;;;18.90;92.24;99089.13;5022378;28;20083;-94
2022/09/11 00:52:27;;;;;;;10.70;7.95;;;;;;;18.93;91.93;99085.75;5008349;28;20055;-96
2022/09/11 00:54:58;;;;;;;10.98;7.97;;;;;;;18.85;90.90;99078.41;5021612;28;20071;-94
2022/09/11 00:57:26;;;;;;;10.50;8.23;;;;;;;18.92;91.29;99096.97;5039063;28;20475;-95
2022/09/11 00:59:53;;;;;;;12.35;8.73;;;;;;;18.82;91.96;99089.97;5021821;28;20064;-95
2022/09/11 01:02:19;;;;;;;17.60;8.32;;;;;;;18.65;91.56;99077.19;5005619;28;20032;-95
2022/09/11 01:04:44;;;;;;;12.65;8.60;;;;;;;18.78;91.38;99087.13;5005452;28;20029;-95
2022/09/11 01:07:10;;;;;;;17.45;9.60;;;;;;;18.76;92.13;99089.34;5005059;28;20029;-94
2022/09/11 01:09:36;;;;;;;11.07;8.85;;;;;;;18.73;91.67;99091.94;5004940;28;20063;-93
2022/09/11 01:12:32;;;;;;;14.93;9.20;;;;;;;18.65;92.59;99077.19;5020913;28;20036;-94
2022/09/11 01:15:13;;;;;;;11.40;8.23;;;;;;;18.60;92.46;99071.16;5040006;28;20141;-95
2022/09/11 01:18:13;;;;;;;10.87;7.90;;;;;;;18.74;92.95;99107.97;5020968;28;20517;-95
2022/09/11 01:21:14;;;;;;;11.30;8.43;;;;;;;18.57;92.56;99095.22;5021099;28;20124;-94
2022/09/11 01:24:08;;;;;;;11.98;8.15;;;;;;;18.51;92.49;99091.09;5040921;28;20033;-94
2022/09/11 01:26:56;;;;;;;16.80;8.63;;;;;;;18.44;92.44;99090.00;5042066;28;20104;-94
2022/09/11 01:29:47;;;;;;;13.07;7.63;;;;;;;18.42;92.11;99087.59;5041284;28;20078;-95
2022/09/11 01:32:20;;;;;;;12.65;7.65;;;;;;;18.50;92.16;99102.31;5024475;28;20047;-94
2022/09/11 01:34:57;;;;;;;18.05;8.73;;;;;;;18.35;91.98;99079.94;5038629;28;20025;-94
2022/09/11 01:37:39;;;;;;;11.27;8.65;;;;;;;18.40;92.25;99078.94;5022556;28;20024;-94
2022/09/11 01:40:13;;;;;;;13.10;8.85;;;;;;;18.35;92.29;99074.47;5021337;28;20051;-93
2022/09/11 01:42:39;;;;;;;12.98;9.02;;;;;;;18.32;92.67;99061.50;5005063;28;20094;-94
2022/09/11 01:45:04;;;;;;;16.73;9.55;;;;;;;18.49;92.76;99087.06;5021433;28;20449;-94
2022/09/11 01:47:31;;;;;;;14.75;9.50;;;;;;;18.42;92.88;99068.50;5004688;28;20025;-95
2022/09/11 01:50:06;;;;;;;12.73;9.02;;;;;;;18.39;93.12;99066.44;5021093;28;20029;-95
2022/09/11 01:52:39;;;;;;;14.57;9.70;;;;;;;18.41;92.84;99074.28;5021770;28;20028;-95
2022/09/11 01:55:12;;;;;;;10.95;8.43;;;;;;;18.49;92.10;99076.16;5005004;28;20427;-95
2022/09/11 01:57:48;;;;;;;9.18;7.40;;;;;;;18.42;92.25;99068.50;5005603;28;20025;-94
2022/09/11 02:00:13;;;;;;;12.60;9.13;;;;;;;18.50;92.35;99085.97;5021997;28;20019;-94
2022/09/11 02:02:48;;;;;;;13.95;8.90;;;;;;;18.33;92.44;99062.31;5021434;28;20021;-95
2022/09/11 02:05:22;;;;;;;11.93;8.90;;;;;;;18.38;92.71;99067.56;5022748;28;20024;-93
2022/09/11 02:07:54;;;;;;;13.48;9.57;;;;;;;18.46;93.18;99077.63;5021486;28;20118;-95
2022/09/11 02:10:23;;;;;;;13.32;8.35;;;;;;;18.36;92.45;99080.72;5004643;28;20025;-95
2022/09/11 02:13:03;;;;;;;15.90;8.98;;;;;;;18.38;91.83;99086.63;5022073;28;20029;-94
2022/09/11 02:15:32;;;;;;;11.82;8.77;;;;;;;18.34;91.49;99093.88;5006605;28;20032;-93
2022/09/11 02:18:02;;;;;;;11.90;8.88;;;;;;;18.38;91.85;99101.06;5021677;28;20029;-94
2022/09/11 02:20:28;;;;;;;15.48;8.93;;;;;;;18.29;91.21;99059.44;5021342;28;20036;-94
2022/09/11 02:22:53;;;;;;;10.82;8.13;;;;;;;18.47;91.33;99092.06;5004398;28;20055;-95
2022/09/11 02:25:19;;;;;;;11.48;8.35;;;;;;;18.30;91.30;99079.28;5021284;28;20119;-95
2022/09/11 02:27:47;;;;;;;13.80;9.05;;;;;;;18.41;91.39;99088.72;5004692;28;20039;-94
2022/09/11 02:30:15;;;;;;;14.27;9.60;;;;;;;18.24;92.12;99078.69;5021235;28;20171;-94
2022/09/11 02:32:41;;;;;;;15.18;9.52;;;;;;;18.34;91.51;99086.53;5021141;28;20082;-95
2022/09/11 02:35:07;;;;;;;15.80;8.13;;;;;;;18.09;91.29;99071.03;5021135;28;20025;-94
2022/09/11 02:38:08;;;;;;;11.32;8.18;;;;;;;18.26;91.85;99100.97;5005333;28;20032;-95
2022/09/11 02:40:54;;;;;;;13.55;8.85;;;;;;;18.10;91.77;99078.91;5046680;28;20037;-95
2022/09/11 02:43:38;;;;;;;16.88;9.20;;;;;;;18.03;91.77;99067.69;5021208;28;20491;-94
2022/09/11 02:46:18;;;;;;;14.30;9.55;;;;;;;18.17;92.30;99098.25;5037400;28;20025;-94
2022/09/11 02:49:06;;;;;;;17.73;9.30;;;;;;;18.16;92.19;99091.22;5053596;28;20021;-94
2022/09/11 02:52:04;;;;;;;15.32;8.80;;;;;;;18.13;92.68;99094.59;5019603;28;20029;-94
2022/09/11 02:54:51;;;;;;;13.27;9.07;;;;;;;18.09;92.15;99084.66;5031455;28;20055;-95
2022/09/11 02:57:29;;;;;;;15.02;9.73;;;;;;;17.96;92.45;99072.84;5053365;28;20133;-94
2022/09/11 03:00:03;;;;;;;13.85;8.98;;;;;;;17.98;92.37;99078.78;5006386;28;20017;-95
2022/09/11 03:02:29;;;;;;;14.32;8.45;;;;;;;17.85;92.41;99053.34;5021185;28;20021;-94
2022/09/11 03:04:55;;;;;;;14.70;9.52;;;;;;;17.84;92.67;99054.44;5004164;28;20024;-95
2022/09/11 03:07:21;;;;;;;13.68;9.18;;;;;;;17.84;92.67;99059.09;5004505;28;20399;-95
2022/09/11 03:09:47;;;;;;;11.95;7.97;;;;;;;18.00;91.79;99083.91;5020678;28;20406;-95
2022/09/11 03:12:12;;;;;;;16.23;9.32;;;;;;;17.86;92.21;99059.56;5003877;28;20028;-94
2022/09/11 03:14:38;;;;;;;15.95;8.70;;;;;;;17.99;92.02;99088.53;5021687;28;20017;-95
2022/09/11 03:17:07;;;;;;;12.77;9.35;;;;;;;17.93;92.13;99082.47;5019991;28;20017;-95
2022/09/11 03:19:32;;;;;;;11.13;8.85;;;;;;;17.84;92.29;99072.72;5021067;28;20037;-93
2022/09/11 03:21:58;;;;;;;12.38;8.93;;;;;;;17.78;91.53;99063.88;5003746;28;20033;-95
2022/09/11 03:24:23;;;;;;;15.43;10.00;;;;;;;17.85;91.63;99080.56;5020677;28;20033;-93
2022/09/11 03:26:51;;;;;;;11.35;8.82;;;;;;;17.89;91.13;99086.97;5003478;28;20021;-95
2022/09/11 03:29:16;;;;;;;16.85;9.13;;;;;;;17.89;91.16;99076.09;5020901;28;20045;-94
2022/09/11 03:31:41;;;;;;;13.40;8.77;;;;;;;17.83;91.01;99071.94;5003853;28;20053;-96
2022/09/11 03:34:07;;;;;;;11.60;8.05;;;;;;;17.89;90.89;99084.25;5004491;28;20036;-94
2022/09/11 03:36:33;;;;;;;10.90;8.60;;;;;;;17.95;91.42;99102.03;5019972;28;20098;-96
2022/09/11 03:38:59;;;;;;;11.30;8.27;;;;;;;17.80;91.83;99085.34;5020561;28;20024;-95
2022/09/11 03:41:25;;;;;;;12.13;8.52;;;;;;;17.77;91.71;99084.09;5020017;28;20087;-94
2022/09/11 03:43:50;;;;;;;10.98;8.60;;;;;;;17.70;90.80;99086.47;5003912;28;20486;-95
2022/09/11 03:46:16;;;;;;;17.75;9.25;;;;;;;17.65;91.31;99092.91;5019753;28;20032;-94
2022/09/11 03:48:44;;;;;;;15.75;8.75;;;;;;;17.67;90.52;99106.19;5020123;28;20510;-94
2022/09/11 03:51:10;;;;;;;11.88;8.25;;;;;;;17.62;90.76;99095.47;5003726;28;20487;-94
2022/09/11 03:53:37;;;;;;;13.60;9.00;;;;;;;17.65;91.18;99111.16;5002541;28;20021;-95
2022/09/11 03:56:05;;;;;;;16.38;8.77;;;;;;;17.54;92.01;99100.59;5020394;28;20108;-95
2022/09/11 03:58:30;;;;;;;18.75;9.18;;;;;;;17.58;91.06;99103.50;5002635;28;20040;-95
2022/09/11 04:00:56;;;;;;;12.30;8.63;;;;;;;17.50;91.13;99102.38;5018888;28;20025;-95
2022/09/11 04:03:21;;;;;;;10.70;8.20;;;;;;;17.42;90.78;99092.28;5005024;28;20095;-94
2022/09/11 04:05:58;;;;;;;16.05;8.25;;;;;;;17.49;91.29;99105.41;5006180;28;20028;-95
2022/09/11 04:08:23;;;;;;;12.52;8.80;;;;;;;17.54;90.56;99107.97;5006102;28;20056;-95
2022/09/11 04:10:58;;;;;;;17.25;10.73;;;;;;;17.53;90.99;99112.59;5022622;28;20057;-94
2022/09/11 04:13:31;;;;;;;16.00;9.32;;;;;;;17.46;90.88;99112.28;5007312;28;20104;-96
2022/09/11 04:16:01;;;;;;;13.43;9.00;;;;;;;17.44;91.81;99113.75;5022758;28;20029;-94
2022/09/11 04:18:27;;;;;;;17.35;9.52;;;;;;;17.35;91.25;99108.31;5023178;28;20514;-94
2022/09/11 04:20:53;;;;;;;11.68;8.48;;;;;;;17.35;90.77;99114.53;5022215;28;20060;-95
2022/09/11 04:23:18;;;;;;;17.65;8.95;;;;;;;17.25;90.95;99103.19;5007485;28;20028;-95
2022/09/11 04:25:44;;;;;;;14.55;9.52;;;;;;;17.38;91.66;99123.97;5006423;28;20035;-96
2022/09/11 04:28:10;;;;;;;16.15;9.13;;;;;;;17.39;91.16;99120.16;5023933;28;20020;-95
2022/09/11 04:30:37;;;;;;;16.35;9.77;;;;;;;17.28;91.52;99113.41;5006779;28;20017;-93
2022/09/11 04:33:04;;;;;;;17.05;10.48;;;;;;;17.32;91.81;99114.38;5023703;28;20086;-95
2022/09/11 04:58:54;;;;;;;17.88;9.95;;;;;;;17.53;91.36;99118.03;5014359;28;20054;-94
2022/09/11 05:01:19;;;;;;;16.40;10.07;;;;;;;17.54;91.87;99130.56;4967875;28;20026;-96
2022/09/11 05:03:47;;;;;;;14.30;9.77;;;;;;;17.50;91.46;99112.47;4983275;28;20045;-96
2022/09/11 05:06:16;;;;;;;14.40;8.70;;;;;;;17.46;91.04;99109.56;4967089;28;20484;-95
2022/09/11 05:08:43;;;;;;;14.40;9.75;;;;;;;17.52;91.51;99113.75;4968058;28;20475;-96
2022/09/11 05:11:13;;;;;;;14.57;9.85;;;;;;;17.55;91.52;99115.00;4967835;28;20476;-96
2022/09/11 05:13:39;;;;;;;14.55;10.10;;;;;;;17.70;91.52;99127.34;4966510;28;20033;-95
2022/09/11 05:16:07;;;;;;;18.00;10.50;;;;;;;17.72;91.41;99119.63;4967391;28;20045;-96
2022/09/11 05:18:33;;;;;;;15.93;10.13;;;;;;;17.69;89.95;99107.47;4967649;28;20034;-96
2022/09/11 05:21:03;;;;;;;17.45;10.25;;;;;;;17.77;90.26;99123.00;4967017;28;20026;-96
2022/09/11 05:23:29;;;;;;;14.82;10.68;;;;;;;17.85;89.97;99115.97;4967993;28;20037;-96
2022/09/11 05:25:58;;;;;;;12.80;10.43;;;;;;;17.93;89.37;99112.44;4969422;28;20605;-96
2022/09/11 05:28:25;;;;;;;18.10;10.55;;;;;;;18.02;89.14;99115.16;4971468;28;20538;-96
2022/09/11 05:30:52;;;;;;;17.92;10.02;;;;;;;18.13;88.88;99119.09;4972748;28;20404;-96
2022/09/11 05:33:22;;;;;;;15.20;10.20;;;;;;;18.31;88.31;99124.53;4978757;28;20026;-96
2022/09/11 05:38:41;;;;;;;13.02;9.63;;;;;;;18.38;87.69;99111.97;4974155;28;20096;-96
2022/09/11 05:41:12;;;;;;;15.13;9.70;;;;;;;18.44;87.88;99114.53;4954615;28;20030;-96
2022/09/11 05:43:43;;;;;;;13.13;9.57;;;;;;;18.62;87.20;99118.00;4989810;28;20053;-96
2022/09/11 05:46:15;;;;;;;10.05;8.05;;;;;;;18.64;85.21;99094.72;4954012;28;20064;-96
2022/09/11 05:49:00;;;;;;;10.32;8.27;;;;;;;18.73;86.02;99102.84;4974467;28;20046;-96
2022/09/11 05:51:36;;;;;;;9.93;7.93;;;;;;;18.82;84.79;99111.78;5008461;28;20052;-96
2022/09/11 05:54:02;;;;;;;10.43;6.93;;;;;;;18.83;84.33;99120.78;4961569;28;20034;-96
2022/09/11 05:56:31;;;;;;;10.73;7.25;;;;;;;18.98;84.16;99118.28;4975635;28;20038;-96
2022/09/11 05:59:04;;;;;;;11.25;7.32;;;;;;;19.02;83.68;99106.72;4961742;28;20030;-96
2022/09/11 06:01:30;;;;;;;12.75;7.38;;;;;;;19.18;83.89;99124.09;4980902;28;20034;-95
2022/09/11 06:03:56;;;;;;;17.60;7.60;;;;;;;19.14;83.72;99106.78;4961785;28;20492;-94
2022/09/11 06:06:22;;;;;;;10.50;6.68;;;;;;;19.34;82.85;99105.19;4945052;28;20492;-95
2022/09/11 06:08:54;;;;;;;19.48;7.30;;;;;;;19.43;82.50;99111.38;4945193;28;20038;-96
2022/09/11 06:11:20;;;;;;;13.02;6.88;;;;;;;19.56;82.14;99123.16;4946257;28;20034;-96
2022/09/11 06:13:46;;;;;;;11.38;6.78;;;;;;;19.59;81.94;99120.56;4961376;28;20587;-95
2022/09/11 06:16:13;;;;;;;13.40;7.25;;;;;;;19.75;81.21;99122.69;4960778;28;20038;-95
2022/09/11 06:18:39;;;;;;;7.68;5.32;;;;;;;19.71;80.59;99119.84;4961156;28;20039;-94
2022/09/11 06:21:06;;;;;;;14.70;7.18;;;;;;;19.93;80.90;99126.06;4976515;28;20050;-94
2022/09/11 06:23:34;;;;;;;6.95;5.45;;;;;;;20.10;78.44;99131.34;4961178;28;20034;-94
2022/09/11 06:26:07;;;;;;;9.50;6.15;;;;;;;20.10;79.59;99125.09;4953312;28;20436;-95
2022/09/11 06:28:34;;;;;;;10.05;5.63;;;;;;;20.19;79.30;99121.13;4981798;28;20030;-94
2022/09/11 06:31:03;;;;;;;8.63;4.80;;;;;;;20.30;75.62;99113.28;4965224;28;20393;-95
2022/09/11 06:33:36;;;;;;;9.05;5.13;;;;;;;20.35;76.66;99121.25;4965511;28;20054;-95
2022/09/11 06:36:05;;;;;;;7.00;4.80;;;;;;;20.45;75.99;99128.22;4966033;28;20025;-95
2022/09/11 06:38:33;;;;;;;8.95;4.45;;;;;;;20.54;76.07;99123.47;4981846;28;20026;-95
2022/09/11 06:41:02;;;;;;;7.15;5.10;;;;;;;20.69;74.88;99127.47;4982003;28;20146;-94
2022/09/11 06:43:28;;;;;;;6.47;4.22;;;;;;;20.93;72.94;99134.06;4964867;28;20054;-95
2022/09/11 06:45:53;;;;;;;6.82;4.18;;;;;;;20.90;73.09;99118.34;4965340;28;20065;-94
2022/09/11 06:48:19;;;;;;;8.18;3.90;;;;;;;20.81;70.86;99123.94;4965322;28;20029;-94
2022/09/11 06:50:44;;;;;;;5.47;4.30;;;;;;;20.91;70.62;99142.63;4964511;28;20038;-95
2022/09/11 06:53:10;;;;;;;6.60;3.50;;;;;;;21.04;68.14;99134.41;4981262;28;20032;-94
2022/09/11 06:55:36;;;;;;;5.03;3.58;;;;;;;21.12;69.03;99131.53;4980888;28;20026;-96
2022/09/11 06:58:01;;;;;;;4.38;3.13;;;;;;;21.22;68.29;99126.75;4965230;28;20049;-96
2022/09/11 07:00:27;;;;;;;5.63;3.03;;;;;;;21.30;67.18;99120.34;4964466;28;20026;-95
2022/09/11 07:02:53;;;;;;;5.25;2.72;;;;;;;21.43;66.68;99124.66;4965299;28;20030;-94
2022/09/11 07:05:21;;;;;;;6.15;2.42;;;;;;;21.55;65.49;99130.09;4964767;28;20079;-94
2022/09/11 07:07:47;;;;;;;6.32;2.90;;;;;;;21.65;66.50;99126.06;4965184;28;20109;-95
2022/09/11 07:10:13;;;;;;;3.53;2.40;;;;;;;21.75;65.19;99116.56;4964714;28;20396;-94
2022/09/11 07:12:38;;;;;;;4.32;2.40;;;;;;;21.88;63.51;99140.00;4980596;28;20022;-96
2022/09/11 07:15:08;;;;;;;5.07;2.30;;;;;;;21.80;62.57;99138.22;4965354;28;20041;-95
2022/09/11 07:17:33;;;;;;;5.72;2.38;;;;;;;21.74;62.79;99134.91;4964878;28;20022;-95
2022/09/11 07:19:59;;;;;;;4.47;2.33;;;;;;;21.90;63.94;99142.41;4964442;28;20025;-95
2022/09/11 07:22:24;;;;;;;4.32;2.30;;;;;;;21.89;62.24;99143.53;4977587;28;20029;-95
2022/09/11 07:24:53;;;;;;;1.85;1.45;;;;;;;22.16;56.90;99144.66;5000484;28;20029;-95
2022/09/11 07:27:18;;;;;;;2.90;2.00;;;;;;;22.21;59.34;99144.41;5001280;28;20028;-95
2022/09/11 07:29:44;;;;;;;2.72;1.55;;;;;;;22.35;57.06;99154.97;5001181;28;20493;-95
2022/09/11 07:32:10;;;;;;;2.75;1.58;;;;;;;22.51;57.21;99130.28;4985022;28;20029;-96
2022/09/11 07:34:38;;;;;;;2.00;1.48;;;;;;;22.51;55.86;99127.56;5001476;28;20033;-96
2022/09/11 07:37:04;;;;;;;3.28;1.40;;;;;;;22.67;56.41;99147.56;4986975;28;20029;-95
2022/09/11 07:39:29;;;;;;;3.92;2.05;;;;;;;22.72;57.26;99136.31;5005026;28;20025;-96
2022/09/11 07:41:55;;;;;;;6.80;2.28;;;;;;;22.87;55.48;99131.13;5004643;28;20399;-94
2022/09/11 07:44:22;;;;;;;2.20;1.30;;;;;;;22.97;54.91;99138.81;5003982;28;20040;-94
2022/09/11 07:46:48;;;;;;;2.38;1.40;;;;;;;23.05;54.35;99140.63;5004888;28;20052;-93
2022/09/11 07:49:14;;;;;;;2.33;1.33;;;;;;;23.15;52.99;99151.03;5004518;28;20013;-96
2022/09/11 07:51:39;;;;;;;3.25;1.60;;;;;;;23.24;53.69;99126.13;5004585;28;20044;-95
2022/09/11 07:54:05;;;;;;;1.67;1.15;;;;;;;23.37;53.17;99137.81;4987142;28;20029;-94
2022/09/11 07:56:32;;;;;;;3.00;1.25;;;;;;;23.54;49.73;99151.09;4986919;28;20034;-95
2022/09/11 07:58:58;;;;;;;2.35;0.95;;;;;;;23.56;49.80;99146.03;4987197;28;20025;-96
2022/09/11 08:01:28;;;;;;;2.78;1.10;;;;;;;23.50;48.03;99139.25;4997472;28;20034;-95
2022/09/11 08:03:57;;;;;;;2.58;0.90;;;;;;;23.60;47.52;99138.66;4984178;28;20463;-94
2022/09/11 08:06:22;;;;;;;1.63;1.00;;;;;;;23.62;47.35;99134.78;4984507;28;20500;-96
2022/09/11 08:09:08;;;;;;;1.17;0.88;;;;;;;23.57;48.08;99120.16;4984811;28;20067;-94
2022/09/11 08:11:38;;;;;;;1.63;0.90;;;;;;;23.64;49.92;99129.69;4968564;28;20033;-95
2022/09/11 08:14:03;;;;;;;1.38;1.20;;;;;;;23.53;47.62;99111.06;4968320;28;20018;-95
2022/09/11 08:16:29;;;;;;;2.88;1.50;;;;;;;23.68;49.78;99125.06;4983936;28;20034;-95
2022/09/11 08:18:55;;;;;;;4.63;0.88;;;;;;;23.81;46.10;99126.53;4968074;28;20092;-96
2022/09/11 08:21:21;;;;;;;4.18;1.20;;;;;;;23.87;46.82;99116.84;4969499;28;20113;-96
2022/09/11 08:23:47;;;;;;;1.48;1.00;;;;;;;24.01;46.91;99108.06;4968320;28;20057;-95
2022/09/11 08:26:21;;;;;;;2.13;1.05;;;;;;;24.02;45.58;99095.09;4984994;28;20038;-96
2022/09/11 08:28:49;;;;;;;1.55;1.30;;;;;;;24.07;45.75;99106.56;4968735;28;20036;-94
2022/09/11 08:31:14;;;;;;;6.15;1.35;;;;;;;24.13;47.27;99121.63;4984725;28;20030;-95
2022/09/11 08:33:40;;;;;;;1.40;0.90;;;;;;;24.20;45.47;99119.00;4967792;28;20041;-96
2022/09/11 08:36:08;;;;;;;1.15;0.82;;;;;;;24.11;45.68;99106.66;4966870;28;20022;-95
2022/09/11 08:38:33;;;;;;;1.55;0.80;;;;;;;24.14;44.63;99119.69;4984274;28;20029;-96
2022/09/11 08:41:13;;;;;;;2.50;1.00;;;;;;;24.19;45.22;99120.16;4967500;28;20543;-95
2022/09/11 08:43:53;;;;;;;1.95;1.20;;;;;;;24.02;44.45;99100.59;4983579;28;20098;-93
2022/09/11 08:46:24;;;;;;;3.78;1.85;;;;;;;24.22;46.47;99104.91;4983602;28;20029;-94
2022/09/11 08:49:05;;;;;;;2.63;1.00;;;;;;;24.28;45.19;99106.19;4982559;28;20029;-95
2022/09/11 08:51:31;;;;;;;0.90;0.80;;;;;;;24.26;45.64;99089.25;5000234;28;20033;-94
2022/09/11 08:53:56;;;;;;;2.63;1.10;;;;;;;24.31;45.66;99091.69;4983272;28;20471;-94
2022/09/11 08:56:35;;;;;;;2.03;1.05;;;;;;;24.21;46.63;99086.78;4966958;28;20407;-95
2022/09/11 08:59:09;;;;;;;1.90;0.98;;;;;;;24.25;44.58;99097.84;4999590;28;20496;-93
2022/09/11 09:01:53;;;;;;;1.77;0.95;;;;;;;24.32;44.56;99097.97;5003080;28;20139;-95
2022/09/11 09:04:26;;;;;;;1.42;0.88;;;;;;;24.27;43.77;99081.78;4999638;28;20030;-94
2022/09/11 09:07:16;;;;;;;1.10;0.85;;;;;;;24.29;44.43;99087.72;4992632;28;20048;-93
2022/09/11 09:10:06;;;;;;;1.60;1.00;;;;;;;24.32;45.39;99085.03;5035611;28;20029;-94
2022/09/11 09:12:38;;;;;;;1.13;0.80;;;;;;;24.25;45.83;99065.63;5035839;28;20021;-93
2022/09/11 09:15:10;;;;;;;2.03;1.10;;;;;;;24.37;44.12;99068.19;5001567;28;20029;-93
2022/09/11 09:17:45;;;;;;;;;;;;;;;24.53;42.09;99075.53;5018547;28;20499;-93
2022/09/11 09:20:36;;;;;;;1.65;0.90;;;;;;;24.44;42.82;99062.00;5001848;28;19916;-95
2022/09/11 09:23:04;;;;;;;1.20;0.70;;;;;;;24.47;43.28;99066.00;4988769;28;20022;-96
2022/09/11 09:25:32;;;;;;;2.03;1.10;;;;;;;24.61;43.20;99063.47;4987646;28;20026;-96
2022/09/11 09:28:08;;;;;;;1.63;0.75;;;;;;;24.67;42.59;99056.47;4987742;28;20112;-93
2022/09/11 09:30:42;;;;;;;2.28;1.05;;;;;;;24.70;43.25;99049.44;5003661;28;20087;-96
2022/09/11 09:33:17;;;;;;;1.70;0.90;;;;;;;24.93;44.24;99065.91;4988663;28;20458;-95
2022/09/11 09:35:43;;;;;;;1.60;1.00;;;;;;;25.01;44.18;99048.31;5022974;28;20033;-95
2022/09/11 09:38:18;;;;;;;2.47;1.00;;;;;;;24.97;43.24;99050.22;4986047;28;20446;-96
2022/09/11 09:41:31;;;;;;;2.45;0.82;;;;;;;25.28;42.77;99053.78;4986477;28;20025;-94
2022/09/11 09:44:30;;;;;;;1.88;0.95;;;;;;;25.40;42.25;99054.34;5013923;28;20033;-94
2022/09/11 09:46:56;;;;;;;3.22;1.08;;;;;;;25.53;42.35;99065.91;5017705;28;20021;-95
2022/09/11 09:49:23;;;;;;;1.38;0.80;;;;;;;25.45;41.20;99041.38;5001711;28;20028;-95
2022/09/11 09:51:50;;;;;;;2.88;1.00;;;;;;;25.31;41.54;99047.50;5017873;28;20080;-94
2022/09/11 09:54:16;;;;;;;3.28;0.80;;;;;;;25.35;41.47;99043.63;4985269;28;20052;-94
2022/09/11 09:56:42;;;;;;;2.80;0.85;;;;;;;25.45;41.10;99035.88;4984404;28;20522;-95
2022/09/11 09:59:07;;;;;;;2.28;0.77;;;;;;;25.63;41.02;99042.38;4985121;28;20044;-95
2022/09/11 10:01:44;;;;;;;0.95;0.70;;;;;;;25.53;40.59;99015.50;5017456;28;20026;-93
2022/09/11 10:04:12;;;;;;;2.08;0.77;;;;;;;25.65;40.34;99023.50;4985177;28;20504;-94
2022/09/11 10:06:38;;;;;;;1.98;0.88;;;;;;;25.88;40.23;99030.78;4984855;28;20018;-94
2022/09/11 10:09:03;;;;;;;2.00;0.95;;;;;;;25.99;39.39;99023.44;5000232;28;20049;-95
2022/09/11 10:11:29;;;;;;;1.40;0.75;;;;;;;25.91;38.58;99013.50;4984855;28;20022;-95
2022/09/11 10:13:54;;;;;;;2.08;0.85;;;;;;;25.96;38.72;99013.97;4984781;28;20033;-94
2022/09/11 10:16:22;;;;;;;2.28;0.80;;;;;;;26.06;38.92;99015.22;5000644;28;20021;-96
2022/09/11 10:18:47;;;;;;;1.15;0.80;;;;;;;26.20;39.44;99003.50;4984149;28;20068;-94
2022/09/11 10:21:32;;;;;;;1.42;0.85;;;;;;;26.30;38.86;99002.00;4984773;28;20026;-94
2022/09/11 10:24:15;;;;;;;1.33;1.00;;;;;;;26.61;37.54;99023.53;4985874;28;20515;-95
2022/09/11 10:26:44;;;;;;;2.60;0.95;;;;;;;26.58;38.15;99006.94;5009664;28;20026;-95
2022/09/11 10:29:23;;;;;;;1.85;0.80;;;;;;;26.75;37.40;99019.25;4982137;28;20029;-95
2022/09/11 10:31:50;;;;;;;1.33;0.98;;;;;;;26.65;37.16;99012.50;4997680;28;20451;-95
2022/09/11 10:34:21;;;;;;;1.25;0.82;;;;;;;26.53;37.90;99019.09;4982920;28;20021;-95
2022/09/11 10:37:02;;;;;;;2.13;1.10;;;;;;;26.44;38.34;98998.53;4967236;28;20021;-95
2022/09/11 10:39:29;;;;;;;1.70;0.88;;;;;;;26.19;38.52;98986.16;4966761;28;20032;-94
2022/09/11 10:41:58;;;;;;;1.25;0.80;;;;;;;26.21;37.06;99005.88;4965975;28;20284;-95
2022/09/11 10:44:23;;;;;;;1.08;0.73;;;;;;;25.99;37.40;98991.13;4967673;28;20030;-94
2022/09/11 10:47:02;;;;;;;2.85;0.93;;;;;;;25.88;38.17;99003.19;4965786;28;20017;-95
2022/09/11 10:49:28;;;;;;;1.90;0.80;;;;;;;25.93;38.42;98984.38;4982402;28;20033;-95
2022/09/11 10:52:21;;;;;;;3.72;0.90;;;;;;;26.07;38.61;98997.50;4965658;28;20022;-95
2022/09/11 10:55:03;;;;;;;3.17;0.93;;;;;;;26.11;38.65;98998.31;4979624;28;20036;-95
2022/09/11 10:57:49;;;;;;;1.17;0.80;;;;;;;25.88;37.53;98998.50;4986140;28;20062;-94
2022/09/11 11:00:18;;;;;;;1.77;0.80;;;;;;;26.03;38.18;98998.63;4959013;28;20510;-95
2022/09/11 11:02:51;;;;;;;2.47;0.90;;;;;;;26.22;37.42;98990.09;4974836;28;20026;-94
2022/09/11 11:05:35;;;;;;;3.38;1.08;;;;;;;26.19;38.87;98985.38;4975709;28;20027;-94
2022/09/11 11:08:20;;;;;;;2.35;1.10;;;;;;;26.20;38.96;99000.75;4943710;28;20019;-95
2022/09/11 11:11:03;;;;;;;4.28;1.00;;;;;;;26.15;37.92;99003.88;4961193;28;20066;-93
2022/09/11 11:13:38;;;;;;;1.30;0.80;;;;;;;26.28;37.96;98987.78;4998587;28;20052;-94
2022/09/11 11:16:45;;;;;;;0.80;0.60;;;;;;;26.12;37.18;98982.53;4992082;28;20026;-96
2022/09/11 11:19:23;;;;;;;1.55;0.90;;;;;;;26.17;37.25;98996.00;4973784;28;20050;-94
2022/09/11 11:22:00;;;;;;;1.55;0.88;;;;;;;26.18;38.12;98981.78;4974836;28;20030;-95
2022/09/11 11:24:45;;;;;;;1.60;1.00;;;;;;;26.10;38.07;98977.41;4975099;28;20073;-96
2022/09/11 11:27:37;;;;;;;1.83;0.75;;;;;;;26.05;37.34;98957.66;4974590;28;20026;-93
2022/09/11 11:30:09;;;;;;;1.38;0.90;;;;;;;26.01;38.22;98957.63;4959404;28;20027;-94
2022/09/11 11:33:07;;;;;;;1.67;0.90;;;;;;;26.00;37.87;98967.88;4957585;28;20110;-94
2022/09/11 11:36:00;;;;;;;2.47;1.10;;;;;;;26.10;38.09;98965.56;4960149;28;20097;-94
2022/09/11 11:38:38;;;;;;;1.77;1.10;;;;;;;25.92;39.03;98949.69;4945092;28;20030;-96
2022/09/11 11:41:14;;;;;;;4.22;0.98;;;;;;;26.01;39.01;98974.97;4959971;28;20359;-94
2022/09/11 11:43:39;;;;;;;2.70;1.30;;;;;;;25.98;39.73;98958.38;4943541;28;20023;-95
2022/09/11 11:46:33;;;;;;;2.58;0.95;;;;;;;26.27;37.15;98970.41;4942937;28;20085;-94
2022/09/11 11:49:01;;;;;;;2.28;1.17;;;;;;;26.37;37.89;98958.66;4957845;28;20030;-96
2022/09/11 11:51:27;;;;;;;1.42;0.90;;;;;;;26.11;36.51;98936.81;4942821;28;20382;-95
2022/09/11 11:53:59;;;;;;;3.05;0.75;;;;;;;26.23;36.82;98947.56;4943155;28;20577;-94
2022/09/11 11:56:34;;;;;;;2.85;0.73;;;;;;;26.09;37.11;98941.94;4943048;28;20483;-93
2022/09/11 11:59:17;;;;;;;1.30;0.80;;;;;;;26.18;36.42;98945.13;4943079;28;20043;-95
2022/09/11 12:02:04;;;;;;;1.20;0.88;;;;;;;26.26;36.95;98934.94;4974589;28;20080;-92
2022/09/11 12:04:44;;;;;;;2.88;1.00;;;;;;;26.35;37.27;98943.66;4973676;28;20035;-94
2022/09/11 12:07:26;;;;;;;1.00;0.90;;;;;;;26.30;36.05;98925.50;4957294;28;20485;-95
2022/09/11 12:09:53;;;;;;;1.77;0.93;;;;;;;26.30;36.46;98916.44;4942638;28;20462;-95
2022/09/11 12:12:19;;;;;;;1.77;1.00;;;;;;;26.29;35.58;98920.34;4941314;28;20018;-94
2022/09/11 12:14:53;;;;;;;1.40;0.90;;;;;;;26.16;36.64;98917.13;4941206;28;20097;-94